Mumford, NY (14511)

11:10 PM EST on December 17, 2014 (GMT -0500)
Mumford | Change Station
CLOSE
Current Station
Personal Weather Station
Location: Scottsville, NY
Elevation: 600 ft
Nearby Weather Stations

Elev 600 ft 43.00 °N, 77.85 °W | Updated 3 seconds ago

Overcast
Overcast
32.2 °F
Feels Like 26 °F
N
6.0
Wind Variable Wind from WNW
Gusts 7.4 mph

Today
High -- | Low -- °F
--% Chance of Precip.
Yesterday
High -- | Low -- °F
Precip. -- in
7:37 AM 4:38 PM
Waning Crescent, 17% visible
Pressure 29.95 in
Visibility 5.0 miles
Clouds Scattered Clouds 1300 ft
Overcast 2100 ft
Windchill 26 °F
Dew Point 24 °F
Humidity 71%
Rainfall 0.02 in
Snow Depth Not available.
UV 0.0 out of 12
Pollen .10 out of 12
Air Quality Not available.
Flu Activity Not available.
SPECI KROC 180407Z 27017KT 5SM -SN BR SCT013 OVC021 00/M02 A2995 RMK AO2 SCT V BKN P0000 T00001022

More Conditions Fewer Conditions

Pressure 29.95 in
Visibility 5.0 miles
Clouds Scattered Clouds 1300 ft
Overcast 2100 ft
Windchill 26 °F
Dew Point 24 °F
Humidity 71%
Rainfall 0.02 in
Snow Depth Not available.
UV 0.0 out of 12
Pollen .10 out of 12
Air Quality Not available.
Flu Activity Not available.
SPECI KROC 180407Z 27017KT 5SM -SN BR SCT013 OVC021 00/M02 A2995 RMK AO2 SCT V BKN P0000 T00001022

More Conditions Fewer Conditions

10-Day Weather Forecast

Almanac

Astronomy

Dec. 17, 2014 Rise Set
Actual Time
Civil Twilight
Nautical Twilight
Astronomical Twilight
Moon
Length of Visible Light
Length of Day
Tomorrow will be .
, % of the Moon is Illuminated

Today's Extremes

State Highs State Lows

Community

WunderPhotos

Upload Photos

1,778,880 photos uploaded!

WunderBlogs® & News

Nearby

Air Quality

  Air Quality AQ Index Pollutant
Not available.

Snow Depth

Station Depth Elevation

Earthquake Activity

City Distance Mag. Time & Date
Minimum magnitude displayed is 2.5.

Coastal Water Temperatures

Place Temperature

Nearby Weather Stations